createdAt,value
2023-09-29T00:00:28.132Z,16.00
2023-09-29T00:03:20.349Z,16.90
2023-09-29T00:05:52.226Z,16.50
2023-09-29T00:08:24.153Z,15.20
2023-09-29T00:10:56.179Z,16.10
2023-09-29T00:13:27.875Z,14.70
2023-09-29T00:15:59.536Z,13.40
2023-09-29T00:18:33.103Z,13.90
2023-09-29T00:21:04.871Z,13.90
2023-09-29T00:23:37.278Z,13.20
2023-09-29T00:26:09.028Z,15.70
2023-09-29T00:28:40.931Z,13.70
2023-09-29T00:31:12.623Z,17.20
2023-09-29T00:33:44.275Z,17.70
2023-09-29T00:36:16.200Z,14.50
2023-09-29T00:38:48.221Z,17.30
2023-09-29T00:41:20.053Z,13.70
2023-09-29T00:43:52.237Z,15.50
2023-09-29T00:46:26.412Z,16.10
2023-09-29T00:48:58.118Z,14.00
2023-09-29T00:51:30.491Z,17.80
2023-09-29T00:54:02.826Z,16.80
2023-09-29T00:56:34.959Z,12.70
2023-09-29T00:59:10.761Z,17.40
2023-09-29T01:01:42.847Z,17.30
2023-09-29T01:04:14.562Z,15.90
2023-09-29T01:06:46.910Z,16.10
2023-09-29T01:09:18.560Z,18.00
2023-09-29T01:11:50.531Z,17.50
2023-09-29T01:14:22.339Z,13.90
2023-09-29T01:16:54.142Z,15.00
2023-09-29T01:19:27.150Z,16.10
2023-09-29T01:21:59.025Z,15.00
2023-09-29T01:24:30.862Z,14.10
2023-09-29T01:27:02.448Z,15.50
2023-09-29T01:29:34.244Z,16.20
2023-09-29T01:32:06.240Z,15.30
2023-09-29T01:34:38.077Z,14.10
2023-09-29T01:37:14.653Z,20.50
2023-09-29T01:39:46.386Z,16.30
2023-09-29T01:42:18.277Z,15.50
2023-09-29T01:44:50.299Z,15.60
2023-09-29T01:47:23.181Z,14.10
2023-09-29T01:49:54.851Z,14.30
2023-09-29T01:52:26.856Z,14.90
2023-09-29T01:54:58.416Z,15.20
2023-09-29T01:57:30.133Z,14.80
2023-09-29T02:00:02.005Z,15.50
2023-09-29T02:02:45.872Z,13.00
2023-09-29T02:05:18.805Z,18.10
2023-09-29T02:07:52.465Z,13.80
2023-09-29T02:10:25.748Z,14.10
2023-09-29T02:12:59.514Z,16.60
2023-09-29T02:15:32.033Z,14.80
2023-09-29T02:18:05.203Z,14.20
2023-09-29T02:20:39.639Z,19.80
2023-09-29T02:23:11.346Z,13.40
2023-09-29T02:25:44.364Z,13.60
2023-09-29T02:28:16.192Z,13.70
2023-09-29T02:30:47.820Z,17.00
2023-09-29T02:33:19.600Z,17.40
2023-09-29T02:35:52.602Z,13.00
2023-09-29T02:38:24.632Z,14.20
2023-09-29T02:40:56.282Z,14.20
2023-09-29T02:43:30.669Z,14.70
2023-09-29T02:46:02.349Z,14.80
2023-09-29T02:48:34.994Z,14.50
2023-09-29T02:51:14.840Z,17.70
2023-09-29T02:53:50.186Z,15.20
2023-09-29T02:56:22.188Z,17.00
2023-09-29T02:58:55.950Z,14.40
2023-09-29T03:01:27.858Z,16.00
2023-09-29T03:03:59.974Z,14.20
2023-09-29T03:06:33.439Z,15.30
2023-09-29T03:09:05.440Z,15.80
2023-09-29T03:11:37.289Z,16.80
2023-09-29T03:14:09.793Z,15.00
2023-09-29T03:16:41.414Z,15.80
2023-09-29T03:19:13.106Z,13.80
2023-09-29T03:21:44.812Z,14.70
2023-09-29T03:24:17.292Z,16.30
2023-09-29T03:29:22.463Z,13.40
2023-09-29T03:31:56.000Z,15.00
2023-09-29T03:34:27.655Z,14.20
2023-09-29T03:36:59.398Z,13.60
2023-09-29T03:39:30.973Z,14.20
2023-09-29T03:44:33.006Z,13.90
2023-09-29T03:47:04.920Z,16.10
2023-09-29T03:49:36.693Z,13.50
2023-09-29T03:52:09.877Z,14.20
2023-09-29T03:54:41.645Z,13.30
2023-09-29T03:57:13.510Z,15.70
2023-09-29T03:59:45.491Z,17.40
2023-09-29T04:02:18.814Z,14.20
2023-09-29T04:04:50.449Z,15.00
2023-09-29T04:07:22.143Z,16.70
2023-09-29T04:12:23.966Z,15.30
2023-09-29T04:17:25.865Z,15.10
2023-09-29T04:22:28.335Z,16.20
2023-09-29T04:27:30.834Z,12.00
2023-09-29T04:30:03.597Z,16.10
2023-09-29T04:32:35.397Z,13.30
2023-09-29T04:35:08.703Z,16.50
2023-09-29T04:37:41.253Z,13.80
2023-09-29T04:40:14.551Z,13.90
2023-09-29T04:42:46.467Z,15.40
2023-09-29T04:45:18.448Z,15.10
2023-09-29T04:47:50.615Z,14.40
2023-09-29T04:50:22.499Z,19.30
2023-09-29T04:52:54.510Z,16.70
2023-09-29T04:55:28.349Z,15.90
2023-09-29T04:58:00.626Z,14.20
2023-09-29T05:00:33.365Z,16.90
2023-09-29T05:03:07.917Z,13.20
2023-09-29T05:05:40.276Z,14.20
2023-09-29T05:08:12.016Z,14.90
2023-09-29T05:10:45.160Z,15.00
2023-09-29T05:13:17.017Z,15.30
2023-09-29T05:15:49.593Z,13.80
2023-09-29T05:18:21.514Z,14.50
2023-09-29T05:20:53.533Z,14.70
2023-09-29T05:23:25.118Z,14.60
2023-09-29T05:28:26.970Z,13.70
2023-09-29T05:30:58.905Z,16.00
2023-09-29T05:33:30.685Z,13.50
2023-09-29T05:36:02.803Z,15.10
2023-09-29T05:38:34.789Z,14.80
2023-09-29T05:41:06.402Z,13.90
2023-09-29T05:46:08.219Z,12.40
2023-09-29T05:48:41.321Z,13.00
2023-09-29T05:51:13.061Z,13.30
2023-09-29T05:53:45.174Z,14.50
2023-09-29T05:56:17.078Z,15.00
2023-09-29T05:58:48.674Z,13.40
2023-09-29T06:03:51.530Z,16.80
2023-09-29T06:06:24.222Z,14.50
2023-09-29T06:08:56.060Z,13.40
2023-09-29T06:11:27.746Z,15.00
2023-09-29T06:13:59.852Z,15.60
2023-09-29T06:16:31.581Z,16.30
2023-09-29T06:19:03.717Z,16.60
2023-09-29T06:21:36.632Z,16.70
2023-09-29T06:24:10.339Z,13.90
2023-09-29T06:26:42.000Z,15.90
2023-09-29T06:29:13.786Z,14.20
2023-09-29T06:34:16.347Z,15.00
2023-09-29T06:36:49.330Z,15.70
2023-09-29T06:39:20.962Z,14.30
2023-09-29T06:41:52.777Z,15.60
2023-09-29T06:44:24.865Z,17.30
2023-09-29T06:46:56.562Z,14.50
2023-09-29T06:49:28.657Z,17.00
2023-09-29T06:52:00.288Z,12.90
2023-09-29T06:54:32.218Z,14.20
2023-09-29T06:57:03.988Z,15.10
2023-09-29T06:59:35.705Z,13.20
2023-09-29T07:02:07.747Z,13.20
2023-09-29T07:04:39.589Z,14.80
2023-09-29T07:07:11.335Z,12.80
2023-09-29T07:09:43.180Z,17.80
2023-09-29T07:12:14.905Z,14.90
2023-09-29T07:14:46.838Z,17.20
2023-09-29T07:17:18.620Z,12.00
2023-09-29T07:19:50.383Z,15.50
2023-09-29T07:22:22.335Z,15.30
2023-09-29T07:24:58.819Z,17.40
2023-09-29T07:27:31.098Z,14.40
2023-09-29T07:30:02.745Z,16.20
2023-09-29T07:32:34.452Z,17.10
2023-09-29T07:35:08.634Z,14.50
2023-09-29T07:37:40.392Z,14.70
2023-09-29T07:40:14.484Z,15.70
2023-09-29T07:42:46.078Z,14.10
2023-09-29T07:45:18.828Z,13.80
2023-09-29T07:47:50.584Z,16.60
2023-09-29T07:50:22.429Z,14.50
2023-09-29T07:52:54.725Z,16.30
2023-09-29T07:55:27.000Z,16.00
2023-09-29T07:57:58.900Z,17.40
2023-09-29T08:00:30.834Z,16.30
2023-09-29T08:03:02.559Z,19.60
2023-09-29T08:05:34.320Z,14.50
2023-09-29T08:08:07.596Z,18.60
2023-09-29T08:10:39.579Z,18.90
2023-09-29T08:13:11.208Z,18.30
2023-09-29T08:15:43.854Z,19.50
2023-09-29T08:18:18.569Z,21.40
2023-09-29T08:20:55.176Z,22.30
2023-09-29T08:23:31.508Z,19.50
2023-09-29T08:26:04.303Z,20.30
2023-09-29T08:28:35.895Z,24.10
2023-09-29T08:31:16.964Z,18.80
2023-09-29T08:33:51.537Z,21.60
2023-09-29T08:36:23.722Z,16.90
2023-09-29T08:38:55.909Z,17.00
2023-09-29T08:41:30.344Z,20.90
2023-09-29T08:44:07.660Z,24.40
2023-09-29T08:46:44.348Z,19.80
2023-09-29T08:49:18.988Z,20.60
2023-09-29T08:51:51.635Z,17.10
2023-09-29T08:54:25.788Z,23.50
2023-09-29T08:56:59.877Z,22.20
2023-09-29T08:59:32.467Z,18.60
2023-09-29T09:02:04.321Z,19.40
2023-09-29T09:04:36.275Z,21.40
2023-09-29T09:07:07.987Z,20.50
2023-09-29T09:09:39.586Z,22.70
2023-09-29T09:12:11.309Z,27.20
2023-09-29T09:14:45.907Z,26.00
2023-09-29T09:17:17.562Z,19.00
2023-09-29T09:19:52.597Z,16.80
2023-09-29T09:22:43.174Z,14.80
2023-09-29T09:25:18.402Z,16.30
2023-09-29T09:27:53.816Z,16.90
2023-09-29T09:30:26.431Z,17.30
2023-09-29T09:32:58.694Z,18.90
2023-09-29T09:35:31.519Z,16.00
2023-09-29T09:38:04.168Z,19.20
2023-09-29T09:40:36.203Z,14.80
2023-09-29T09:43:10.207Z,16.30
2023-09-29T09:45:45.805Z,10.90
2023-09-29T09:48:22.285Z,14.20
2023-09-29T09:50:58.879Z,14.20
2023-09-29T09:53:32.972Z,13.00
2023-09-29T09:56:16.169Z,15.20
2023-09-29T09:58:50.163Z,15.40
2023-09-29T10:01:23.393Z,13.70
2023-09-29T10:03:58.139Z,17.20
2023-09-29T10:06:31.368Z,12.50
2023-09-29T10:09:08.962Z,18.20
2023-09-29T10:11:43.979Z,12.50
2023-09-29T10:14:16.166Z,14.80
2023-09-29T10:16:47.976Z,10.80
2023-09-29T10:19:20.059Z,18.60
2023-09-29T10:21:51.876Z,12.80
2023-09-29T10:24:30.636Z,14.60
2023-09-29T10:27:05.798Z,13.50
2023-09-29T10:29:39.888Z,12.50
2023-09-29T10:32:16.207Z,16.50
2023-09-29T10:34:49.651Z,14.00
2023-09-29T10:37:25.661Z,16.50
2023-09-29T10:39:57.374Z,14.80
2023-09-29T10:42:35.374Z,11.60
2023-09-29T10:45:08.737Z,15.00
2023-09-29T10:47:40.426Z,16.30
2023-09-29T10:50:13.832Z,15.30
2023-09-29T10:52:46.707Z,17.20
2023-09-29T10:55:18.724Z,15.50
2023-09-29T10:57:51.158Z,16.80
2023-09-29T11:00:23.345Z,11.70
2023-09-29T11:02:55.374Z,14.10
2023-09-29T11:05:27.861Z,12.00
2023-09-29T11:08:00.125Z,13.70
2023-09-29T11:10:32.262Z,14.40
2023-09-29T11:13:04.035Z,11.10
2023-09-29T11:15:41.079Z,17.00
2023-09-29T11:18:12.757Z,11.10
2023-09-29T11:20:54.950Z,12.70
2023-09-29T11:23:26.758Z,16.80
2023-09-29T11:26:00.997Z,13.30
2023-09-29T11:28:32.723Z,11.60
2023-09-29T11:31:04.409Z,11.80
2023-09-29T11:33:36.227Z,12.90
2023-09-29T11:36:16.726Z,12.20
2023-09-29T11:38:48.725Z,13.90
2023-09-29T11:41:22.510Z,11.10
2023-09-29T11:43:54.383Z,13.30
2023-09-29T11:46:27.172Z,10.70
2023-09-29T11:48:58.800Z,15.30
2023-09-29T11:51:30.468Z,12.40
2023-09-29T11:54:02.120Z,13.30
2023-09-29T11:56:33.815Z,10.80
2023-09-29T11:59:05.470Z,11.00
2023-09-29T12:01:37.255Z,12.60
2023-09-29T12:04:09.265Z,12.90
2023-09-29T12:06:40.937Z,16.70
2023-09-29T12:09:12.917Z,14.70
2023-09-29T12:11:44.724Z,15.90
2023-09-29T12:14:16.409Z,14.70
2023-09-29T12:16:48.043Z,16.60
2023-09-29T12:19:21.719Z,15.50
2023-09-29T12:21:53.326Z,10.40
2023-09-29T12:24:25.031Z,10.20
2023-09-29T12:26:56.853Z,11.30
2023-09-29T12:29:30.523Z,14.60
2023-09-29T12:32:02.505Z,12.20
2023-09-29T12:34:36.037Z,16.30
2023-09-29T12:37:09.224Z,15.20
2023-09-29T12:39:41.563Z,13.00
2023-09-29T12:42:13.244Z,9.50
2023-09-29T12:44:47.840Z,10.20
2023-09-29T12:47:19.870Z,12.60
2023-09-29T12:49:51.793Z,15.00
2023-09-29T12:52:23.494Z,14.10
2023-09-29T12:54:58.037Z,12.20
2023-09-29T12:57:29.794Z,16.00
2023-09-29T13:00:01.513Z,12.90
2023-09-29T13:02:33.981Z,13.00
2023-09-29T13:05:07.849Z,16.10
2023-09-29T13:07:39.537Z,17.80
2023-09-29T13:10:12.830Z,11.60
2023-09-29T13:12:47.499Z,12.90
2023-09-29T13:15:19.507Z,11.50
2023-09-29T13:17:52.744Z,12.40
2023-09-29T13:20:24.572Z,12.90
2023-09-29T13:22:56.786Z,9.70
2023-09-29T13:25:29.700Z,11.90
2023-09-29T13:28:01.701Z,12.90
2023-09-29T13:30:43.679Z,14.50
2023-09-29T13:33:27.903Z,11.30
2023-09-29T13:35:59.998Z,14.30
2023-09-29T13:38:31.645Z,11.90
2023-09-29T13:41:03.630Z,13.20
2023-09-29T13:43:35.464Z,10.50
2023-09-29T13:46:09.388Z,12.20
2023-09-29T13:48:41.386Z,9.80
2023-09-29T13:51:13.178Z,10.60
2023-09-29T13:53:45.124Z,9.70
2023-09-29T13:56:17.058Z,8.90
2023-09-29T13:58:48.769Z,11.40
2023-09-29T14:01:21.078Z,11.80
2023-09-29T14:03:57.568Z,12.00
2023-09-29T14:06:30.271Z,12.40
2023-09-29T14:09:15.162Z,12.30
2023-09-29T14:11:50.992Z,11.80
2023-09-29T14:14:23.272Z,18.10
2023-09-29T14:16:54.925Z,11.60
2023-09-29T14:19:26.968Z,12.00
2023-09-29T14:21:58.808Z,13.40
2023-09-29T14:24:32.445Z,10.40
2023-09-29T14:27:04.327Z,10.50
2023-09-29T14:29:36.277Z,13.30
2023-09-29T14:32:08.041Z,13.20
2023-09-29T14:34:40.325Z,10.10
2023-09-29T14:37:12.015Z,13.10
2023-09-29T14:39:43.759Z,12.30
2023-09-29T14:42:15.416Z,12.70
2023-09-29T14:44:48.382Z,14.60
2023-09-29T14:47:20.806Z,12.30
2023-09-29T14:49:52.555Z,12.10
2023-09-29T14:52:24.825Z,10.30
2023-09-29T14:54:57.771Z,12.50
2023-09-29T14:57:29.556Z,16.40
2023-09-29T15:00:02.325Z,10.90
2023-09-29T15:02:34.238Z,12.10
2023-09-29T15:05:06.982Z,16.10
2023-09-29T15:07:38.596Z,13.40
2023-09-29T15:10:11.518Z,10.40
2023-09-29T15:12:43.125Z,12.20
2023-09-29T15:15:15.406Z,15.80
2023-09-29T15:17:47.247Z,12.30
2023-09-29T15:20:19.367Z,12.80
2023-09-29T15:22:50.947Z,12.80
2023-09-29T15:25:24.622Z,17.10
2023-09-29T15:30:43.283Z,14.10
2023-09-29T15:33:15.991Z,18.10
2023-09-29T15:35:56.543Z,13.30
2023-09-29T15:38:28.588Z,15.70
2023-09-29T15:41:00.295Z,11.60
2023-09-29T15:43:32.365Z,12.80
2023-09-29T15:46:11.669Z,11.80
2023-09-29T15:48:45.349Z,13.10
2023-09-29T15:51:17.279Z,10.60
2023-09-29T15:53:55.207Z,12.70
2023-09-29T15:56:27.336Z,11.10
2023-09-29T15:58:58.916Z,10.50
2023-09-29T16:01:30.589Z,12.10
2023-09-29T16:04:03.357Z,17.20
2023-09-29T16:06:35.379Z,14.90
2023-09-29T16:09:07.603Z,14.70
2023-09-29T16:11:39.829Z,14.40
2023-09-29T16:14:12.063Z,17.20
2023-09-29T16:16:44.303Z,15.80
2023-09-29T16:19:15.926Z,13.30
2023-09-29T16:21:47.632Z,15.80
2023-09-29T16:24:19.276Z,11.00
2023-09-29T16:26:50.977Z,11.60
2023-09-29T16:29:22.667Z,13.50
2023-09-29T16:31:54.624Z,16.60
2023-09-29T16:34:26.541Z,14.90
2023-09-29T16:36:58.238Z,14.50
2023-09-29T16:39:31.143Z,14.60
2023-09-29T16:42:02.918Z,11.10
2023-09-29T16:44:35.645Z,13.50
2023-09-29T16:47:07.273Z,12.30
2023-09-29T16:49:38.820Z,13.50
2023-09-29T16:52:10.427Z,12.70
2023-09-29T16:54:44.148Z,16.30
2023-09-29T16:57:16.649Z,12.20
2023-09-29T16:59:48.478Z,13.60
2023-09-29T17:02:20.239Z,11.30
2023-09-29T17:04:52.097Z,10.60
2023-09-29T17:07:23.817Z,15.60
2023-09-29T17:09:55.534Z,11.50
2023-09-29T17:12:28.263Z,16.80
2023-09-29T17:15:01.194Z,14.90
2023-09-29T17:17:33.843Z,12.20
2023-09-29T17:20:06.826Z,13.10
2023-09-29T17:22:38.386Z,15.80
2023-09-29T17:25:12.204Z,12.30
2023-09-29T17:27:43.836Z,16.80
2023-09-29T17:30:17.078Z,13.80
2023-09-29T17:32:48.736Z,14.70
2023-09-29T17:35:20.496Z,12.40
2023-09-29T17:37:54.211Z,11.80
2023-09-29T17:40:26.026Z,12.80
2023-09-29T17:42:57.676Z,15.50
2023-09-29T17:45:29.907Z,15.10
2023-09-29T17:48:01.606Z,16.40
2023-09-29T17:50:37.481Z,16.50
2023-09-29T17:53:09.397Z,16.00
2023-09-29T17:55:41.253Z,14.40
2023-09-29T17:58:15.326Z,14.00
2023-09-29T18:00:47.147Z,17.90
2023-09-29T18:03:19.293Z,20.10
2023-09-29T18:05:50.961Z,18.00
2023-09-29T18:08:22.556Z,14.30
2023-09-29T18:10:54.350Z,17.60
2023-09-29T18:13:29.483Z,15.00
2023-09-29T18:16:06.564Z,16.60
2023-09-29T18:18:38.424Z,14.50
2023-09-29T18:21:10.783Z,16.70
2023-09-29T18:23:42.863Z,18.40
2023-09-29T18:26:16.979Z,17.10
2023-09-29T18:28:48.933Z,19.80
2023-09-29T18:31:20.823Z,16.90
2023-09-29T18:33:52.510Z,14.60
2023-09-29T18:36:29.372Z,13.30
2023-09-29T18:39:01.295Z,18.10
2023-09-29T18:41:35.390Z,14.90
2023-09-29T18:44:11.332Z,15.80
2023-09-29T18:46:45.284Z,14.20
2023-09-29T18:49:21.321Z,18.20
2023-09-29T18:52:00.508Z,18.90
2023-09-29T18:54:34.158Z,14.30
2023-09-29T18:57:06.123Z,15.10
2023-09-29T18:59:45.832Z,13.20
2023-09-29T19:02:24.519Z,13.80
2023-09-29T19:04:56.156Z,14.90
2023-09-29T19:07:32.782Z,16.10
2023-09-29T19:10:10.687Z,14.50
2023-09-29T19:12:48.910Z,15.20
2023-09-29T19:15:26.600Z,16.30
2023-09-29T19:18:04.657Z,17.50
2023-09-29T19:20:43.315Z,14.20
2023-09-29T19:23:15.686Z,16.70
2023-09-29T19:25:47.511Z,19.50
2023-09-29T19:28:19.099Z,16.20
2023-09-29T19:30:50.920Z,14.60
2023-09-29T19:33:23.238Z,13.50
2023-09-29T19:35:57.340Z,16.20
2023-09-29T19:38:32.697Z,15.80
2023-09-29T19:41:04.326Z,19.10
2023-09-29T19:43:36.119Z,15.70
2023-09-29T19:46:08.127Z,18.20
2023-09-29T19:48:41.664Z,15.70
2023-09-29T19:51:14.974Z,14.20
2023-09-29T19:53:49.871Z,19.70
2023-09-29T19:56:22.559Z,13.80
2023-09-29T19:58:58.795Z,16.90
2023-09-29T20:01:31.547Z,17.80
2023-09-29T20:04:06.208Z,15.60
2023-09-29T20:06:38.237Z,14.40
2023-09-29T20:09:10.113Z,14.80
2023-09-29T20:11:41.747Z,15.60
2023-09-29T20:14:14.649Z,16.60
2023-09-29T20:16:46.715Z,15.80
2023-09-29T20:19:18.478Z,15.60
2023-09-29T20:21:50.317Z,18.10
2023-09-29T20:24:24.865Z,17.30
2023-09-29T20:26:57.321Z,18.90
2023-09-29T20:29:29.196Z,16.70
2023-09-29T20:32:00.938Z,15.50
2023-09-29T20:34:33.806Z,18.70
2023-09-29T20:37:08.306Z,19.10
2023-09-29T20:39:39.958Z,20.90
2023-09-29T20:42:13.556Z,20.20
2023-09-29T20:44:46.752Z,22.50
2023-09-29T20:47:18.705Z,17.00
2023-09-29T20:49:50.355Z,21.50
2023-09-29T20:52:22.019Z,18.90
2023-09-29T20:54:54.045Z,17.50
2023-09-29T20:57:27.300Z,21.30
2023-09-29T20:59:59.317Z,19.30
2023-09-29T21:02:30.989Z,17.70
2023-09-29T21:05:02.685Z,18.20
2023-09-29T21:07:34.311Z,21.90
2023-09-29T21:10:09.445Z,18.80
2023-09-29T21:12:41.054Z,18.80
2023-09-29T21:15:14.454Z,19.80
2023-09-29T21:17:46.204Z,19.00
2023-09-29T21:20:17.807Z,24.10
2023-09-29T21:22:53.990Z,17.60
2023-09-29T21:25:26.099Z,20.40
2023-09-29T21:27:57.886Z,21.10
2023-09-29T21:30:30.549Z,21.30
2023-09-29T21:33:02.276Z,19.70
2023-09-29T21:35:35.497Z,19.10
2023-09-29T21:38:07.351Z,19.00
2023-09-29T21:40:39.192Z,19.00
2023-09-29T21:43:11.053Z,21.50
2023-09-29T21:45:42.687Z,19.30
2023-09-29T21:48:14.495Z,20.40
2023-09-29T21:50:46.257Z,23.10
2023-09-29T21:53:17.817Z,18.20
2023-09-29T21:55:49.457Z,19.60
2023-09-29T21:58:22.559Z,18.50
2023-09-29T22:00:54.210Z,19.50
2023-09-29T22:03:27.407Z,19.40
2023-09-29T22:05:59.171Z,20.40
2023-09-29T22:08:30.907Z,18.10
2023-09-29T22:11:02.538Z,22.50
2023-09-29T22:13:34.231Z,19.00
2023-09-29T22:16:06.351Z,23.80
2023-09-29T22:18:38.090Z,21.00
2023-09-29T22:21:09.867Z,19.50
2023-09-29T22:23:41.910Z,22.70
2023-09-29T22:26:22.884Z,19.30
2023-09-29T22:28:54.598Z,22.50
2023-09-29T22:31:26.419Z,21.40
2023-09-29T22:33:58.768Z,18.90
2023-09-29T22:36:31.045Z,23.30
2023-09-29T22:39:02.889Z,23.60
2023-09-29T22:41:34.862Z,21.10
2023-09-29T22:44:07.130Z,22.60
2023-09-29T22:46:39.129Z,22.40
2023-09-29T22:49:12.403Z,19.00
2023-09-29T22:51:44.497Z,20.80
2023-09-29T22:54:16.570Z,22.60
2023-09-29T22:56:48.254Z,22.50
2023-09-29T22:59:21.397Z,22.50
2023-09-29T23:01:53.860Z,22.50
2023-09-29T23:04:26.160Z,20.30
2023-09-29T23:06:58.262Z,23.00
2023-09-29T23:09:29.964Z,24.30
2023-09-29T23:12:04.219Z,22.40
2023-09-29T23:14:37.221Z,24.90
2023-09-29T23:17:09.972Z,24.20
2023-09-29T23:19:41.715Z,20.20
2023-09-29T23:22:13.685Z,21.00
2023-09-29T23:24:45.401Z,25.20
2023-09-29T23:27:17.161Z,29.30
2023-09-29T23:29:49.194Z,22.40
2023-09-29T23:32:21.618Z,22.90
2023-09-29T23:34:53.477Z,20.50
2023-09-29T23:37:25.136Z,22.60
2023-09-29T23:39:56.829Z,22.80
2023-09-29T23:42:28.552Z,25.00
2023-09-29T23:45:01.140Z,21.10
2023-09-29T23:47:33.019Z,24.00
2023-09-29T23:50:06.213Z,21.20
2023-09-29T23:52:37.908Z,27.10
2023-09-29T23:55:12.567Z,27.10
2023-09-29T23:57:44.923Z,24.70
